sensor_id;sensor_type;location;lat;lon;timestamp;temperature;humidity
15013;DHT22;7603;49.432;11.418;2023-04-25T00:01:58;6.80;99.90
15013;DHT22;7603;49.432;11.418;2023-04-25T00:04:25;6.90;99.90
15013;DHT22;7603;49.432;11.418;2023-04-25T00:06:55;6.90;99.90
15013;DHT22;7603;49.432;11.418;2023-04-25T00:09:22;6.90;99.90
15013;DHT22;7603;49.432;11.418;2023-04-25T00:11:48;6.90;99.90
15013;DHT22;7603;49.432;11.418;2023-04-25T00:14:14;6.90;99.90
15013;DHT22;7603;49.432;11.418;2023-04-25T00:16:39;6.90;99.90
15013;DHT22;7603;49.432;11.418;2023-04-25T00:19:06;6.90;99.90
15013;DHT22;7603;49.432;11.418;2023-04-25T00:21:33;6.90;99.90
15013;DHT22;7603;49.432;11.418;2023-04-25T00:23:59;6.90;99.90
15013;DHT22;7603;49.432;11.418;2023-04-25T00:26:25;7.00;99.90
15013;DHT22;7603;49.432;11.418;2023-04-25T00:28:51;7.00;99.90
15013;DHT22;7603;49.432;11.418;2023-04-25T00:31:17;7.10;99.90
15013;DHT22;7603;49.432;11.418;2023-04-25T00:33:42;7.20;99.90
15013;DHT22;7603;49.432;11.418;2023-04-25T00:36:08;7.20;99.90
15013;DHT22;7603;49.432;11.418;2023-04-25T00:38:34;7.20;99.90
15013;DHT22;7603;49.432;11.418;2023-04-25T00:41:00;7.30;99.90
15013;DHT22;7603;49.432;11.418;2023-04-25T00:43:26;7.30;99.90
15013;DHT22;7603;49.432;11.418;2023-04-25T00:45:52;7.30;99.90
15013;DHT22;7603;49.432;11.418;2023-04-25T00:48:20;7.40;99.90
15013;DHT22;7603;49.432;11.418;2023-04-25T00:50:55;7.40;99.90
15013;DHT22;7603;49.432;11.418;2023-04-25T00:53:21;7.50;99.90
15013;DHT22;7603;49.432;11.418;2023-04-25T00:55:48;7.50;99.90
15013;DHT22;7603;49.432;11.418;2023-04-25T00:58:19;7.50;99.90
15013;DHT22;7603;49.432;11.418;2023-04-25T01:00:46;7.60;99.90
15013;DHT22;7603;49.432;11.418;2023-04-25T01:03:13;7.60;99.90
15013;DHT22;7603;49.432;11.418;2023-04-25T01:05:42;7.70;99.90
15013;DHT22;7603;49.432;11.418;2023-04-25T01:08:08;7.80;99.90
15013;DHT22;7603;49.432;11.418;2023-04-25T01:10:34;7.70;99.90
15013;DHT22;7603;49.432;11.418;2023-04-25T01:13:00;7.80;99.90
15013;DHT22;7603;49.432;11.418;2023-04-25T01:15:26;7.70;99.90
15013;DHT22;7603;49.432;11.418;2023-04-25T01:17:51;7.60;99.90
15013;DHT22;7603;49.432;11.418;2023-04-25T01:20:21;7.60;99.90
15013;DHT22;7603;49.432;11.418;2023-04-25T01:22:48;7.50;99.90
15013;DHT22;7603;49.432;11.418;2023-04-25T01:25:14;7.50;99.90
15013;DHT22;7603;49.432;11.418;2023-04-25T01:27:40;7.40;99.90
15013;DHT22;7603;49.432;11.418;2023-04-25T01:30:06;7.40;99.90
15013;DHT22;7603;49.432;11.418;2023-04-25T01:32:33;7.40;99.90
15013;DHT22;7603;49.432;11.418;2023-04-25T01:35:05;7.40;99.90
15013;DHT22;7603;49.432;11.418;2023-04-25T01:37:35;7.30;99.90
15013;DHT22;7603;49.432;11.418;2023-04-25T01:40:02;7.30;99.90
15013;DHT22;7603;49.432;11.418;2023-04-25T01:42:27;7.30;99.90
15013;DHT22;7603;49.432;11.418;2023-04-25T01:44:53;7.20;99.90
15013;DHT22;7603;49.432;11.418;2023-04-25T01:47:18;7.20;99.90
15013;DHT22;7603;49.432;11.418;2023-04-25T01:49:44;7.10;99.90
15013;DHT22;7603;49.432;11.418;2023-04-25T01:52:10;7.10;99.90
15013;DHT22;7603;49.432;11.418;2023-04-25T01:54:35;7.00;99.90
15013;DHT22;7603;49.432;11.418;2023-04-25T01:57:01;7.00;99.90
15013;DHT22;7603;49.432;11.418;2023-04-25T01:59:27;6.90;99.90
15013;DHT22;7603;49.432;11.418;2023-04-25T02:01:52;6.90;99.90
15013;DHT22;7603;49.432;11.418;2023-04-25T02:04:18;6.80;99.90
15013;DHT22;7603;49.432;11.418;2023-04-25T02:06:43;6.90;99.90
15013;DHT22;7603;49.432;11.418;2023-04-25T02:09:09;6.90;99.90
15013;DHT22;7603;49.432;11.418;2023-04-25T02:11:35;6.90;99.90
15013;DHT22;7603;49.432;11.418;2023-04-25T02:14:00;6.90;99.90
15013;DHT22;7603;49.432;11.418;2023-04-25T02:16:26;6.90;99.90
15013;DHT22;7603;49.432;11.418;2023-04-25T02:18:51;6.90;99.90
15013;DHT22;7603;49.432;11.418;2023-04-25T02:21:18;6.90;99.90
15013;DHT22;7603;49.432;11.418;2023-04-25T02:23:43;6.90;99.90
15013;DHT22;7603;49.432;11.418;2023-04-25T02:26:11;6.90;99.90
15013;DHT22;7603;49.432;11.418;2023-04-25T02:28:36;7.00;99.90
15013;DHT22;7603;49.432;11.418;2023-04-25T02:31:02;7.00;99.90
15013;DHT22;7603;49.432;11.418;2023-04-25T02:33:28;7.10;99.90
15013;DHT22;7603;49.432;11.418;2023-04-25T02:35:53;7.10;99.90
15013;DHT22;7603;49.432;11.418;2023-04-25T02:38:19;7.10;99.90
15013;DHT22;7603;49.432;11.418;2023-04-25T02:40:44;7.10;99.90
15013;DHT22;7603;49.432;11.418;2023-04-25T02:43:10;7.20;99.90
15013;DHT22;7603;49.432;11.418;2023-04-25T02:45:35;7.20;99.90
15013;DHT22;7603;49.432;11.418;2023-04-25T02:48:02;7.10;99.90
15013;DHT22;7603;49.432;11.418;2023-04-25T02:50:28;7.10;99.90
15013;DHT22;7603;49.432;11.418;2023-04-25T02:52:53;7.00;99.90
15013;DHT22;7603;49.432;11.418;2023-04-25T02:55:19;7.00;99.90
15013;DHT22;7603;49.432;11.418;2023-04-25T02:57:45;6.90;99.90
15013;DHT22;7603;49.432;11.418;2023-04-25T03:00:11;6.90;99.90
15013;DHT22;7603;49.432;11.418;2023-04-25T03:02:37;6.80;99.90
15013;DHT22;7603;49.432;11.418;2023-04-25T03:05:02;6.80;99.90
15013;DHT22;7603;49.432;11.418;2023-04-25T03:07:28;6.70;99.90
15013;DHT22;7603;49.432;11.418;2023-04-25T03:09:54;6.70;99.90
15013;DHT22;7603;49.432;11.418;2023-04-25T03:12:20;6.70;99.90
15013;DHT22;7603;49.432;11.418;2023-04-25T03:14:46;6.60;99.90
15013;DHT22;7603;49.432;11.418;2023-04-25T03:17:12;6.60;99.90
15013;DHT22;7603;49.432;11.418;2023-04-25T03:19:37;6.60;99.90
15013;DHT22;7603;49.432;11.418;2023-04-25T03:22:03;6.60;99.90
15013;DHT22;7603;49.432;11.418;2023-04-25T03:24:28;6.60;99.90
15013;DHT22;7603;49.432;11.418;2023-04-25T03:26:54;6.70;99.90
15013;DHT22;7603;49.432;11.418;2023-04-25T03:29:19;6.70;99.90
15013;DHT22;7603;49.432;11.418;2023-04-25T03:31:49;6.70;99.90
15013;DHT22;7603;49.432;11.418;2023-04-25T03:34:15;6.60;99.90
15013;DHT22;7603;49.432;11.418;2023-04-25T03:36:41;6.60;99.90
15013;DHT22;7603;49.432;11.418;2023-04-25T03:39:06;6.70;99.90
15013;DHT22;7603;49.432;11.418;2023-04-25T03:41:32;6.60;99.90
15013;DHT22;7603;49.432;11.418;2023-04-25T03:43:59;6.50;99.90
15013;DHT22;7603;49.432;11.418;2023-04-25T03:46:24;6.50;99.90
15013;DHT22;7603;49.432;11.418;2023-04-25T03:48:50;6.50;99.90
15013;DHT22;7603;49.432;11.418;2023-04-25T03:51:15;6.40;99.90
15013;DHT22;7603;49.432;11.418;2023-04-25T03:53:41;6.40;99.90
15013;DHT22;7603;49.432;11.418;2023-04-25T03:56:07;6.40;99.90
15013;DHT22;7603;49.432;11.418;2023-04-25T03:58:32;6.40;99.90
15013;DHT22;7603;49.432;11.418;2023-04-25T04:00:58;6.40;99.90
15013;DHT22;7603;49.432;11.418;2023-04-25T04:03:23;6.50;99.90
15013;DHT22;7603;49.432;11.418;2023-04-25T04:05:49;6.50;99.90
15013;DHT22;7603;49.432;11.418;2023-04-25T04:08:15;6.50;99.90
15013;DHT22;7603;49.432;11.418;2023-04-25T04:10:40;6.60;99.90
15013;DHT22;7603;49.432;11.418;2023-04-25T04:13:06;6.60;99.90
15013;DHT22;7603;49.432;11.418;2023-04-25T04:15:31;6.70;99.90
15013;DHT22;7603;49.432;11.418;2023-04-25T04:17:58;6.70;99.90
15013;DHT22;7603;49.432;11.418;2023-04-25T04:20:28;6.70;99.90
15013;DHT22;7603;49.432;11.418;2023-04-25T04:22:54;6.70;99.90
15013;DHT22;7603;49.432;11.418;2023-04-25T04:25:19;6.70;99.90
15013;DHT22;7603;49.432;11.418;2023-04-25T04:27:45;6.70;99.90
15013;DHT22;7603;49.432;11.418;2023-04-25T04:30:11;6.70;99.90
15013;DHT22;7603;49.432;11.418;2023-04-25T04:32:37;6.80;99.90
15013;DHT22;7603;49.432;11.418;2023-04-25T04:35:04;6.90;99.90
15013;DHT22;7603;49.432;11.418;2023-04-25T04:37:30;6.90;99.90
15013;DHT22;7603;49.432;11.418;2023-04-25T04:39:55;7.00;99.90
15013;DHT22;7603;49.432;11.418;2023-04-25T04:42:21;7.10;99.90
15013;DHT22;7603;49.432;11.418;2023-04-25T04:44:46;7.10;99.90
15013;DHT22;7603;49.432;11.418;2023-04-25T04:47:12;7.20;99.90
15013;DHT22;7603;49.432;11.418;2023-04-25T04:49:39;7.20;99.90
15013;DHT22;7603;49.432;11.418;2023-04-25T04:52:05;7.30;99.90
15013;DHT22;7603;49.432;11.418;2023-04-25T04:54:30;7.30;99.90
15013;DHT22;7603;49.432;11.418;2023-04-25T04:56:56;7.30;99.90
15013;DHT22;7603;49.432;11.418;2023-04-25T04:59:22;7.40;99.90
15013;DHT22;7603;49.432;11.418;2023-04-25T05:01:47;7.40;99.90
15013;DHT22;7603;49.432;11.418;2023-04-25T05:04:13;7.40;99.90
15013;DHT22;7603;49.432;11.418;2023-04-25T05:06:39;7.40;99.90
15013;DHT22;7603;49.432;11.418;2023-04-25T05:09:04;7.40;99.90
15013;DHT22;7603;49.432;11.418;2023-04-25T05:11:30;7.40;99.90
15013;DHT22;7603;49.432;11.418;2023-04-25T05:13:55;7.40;99.90
15013;DHT22;7603;49.432;11.418;2023-04-25T05:16:21;7.40;99.90
15013;DHT22;7603;49.432;11.418;2023-04-25T05:18:47;7.40;99.90
15013;DHT22;7603;49.432;11.418;2023-04-25T05:21:12;7.40;99.90
15013;DHT22;7603;49.432;11.418;2023-04-25T05:23:38;7.40;99.90
15013;DHT22;7603;49.432;11.418;2023-04-25T05:26:04;7.40;99.90
15013;DHT22;7603;49.432;11.418;2023-04-25T05:28:29;7.40;99.90
15013;DHT22;7603;49.432;11.418;2023-04-25T05:30:56;7.40;99.90
15013;DHT22;7603;49.432;11.418;2023-04-25T05:33:22;7.40;99.90
15013;DHT22;7603;49.432;11.418;2023-04-25T05:35:48;7.40;99.90
15013;DHT22;7603;49.432;11.418;2023-04-25T05:38:13;7.40;99.90
15013;DHT22;7603;49.432;11.418;2023-04-25T05:40:39;7.40;99.90
15013;DHT22;7603;49.432;11.418;2023-04-25T05:43:04;7.40;99.90
15013;DHT22;7603;49.432;11.418;2023-04-25T05:45:30;7.50;99.90
15013;DHT22;7603;49.432;11.418;2023-04-25T05:47:55;7.40;99.90
15013;DHT22;7603;49.432;11.418;2023-04-25T05:50:21;7.50;99.90
15013;DHT22;7603;49.432;11.418;2023-04-25T05:52:47;7.50;99.90
15013;DHT22;7603;49.432;11.418;2023-04-25T05:55:12;7.60;99.90
15013;DHT22;7603;49.432;11.418;2023-04-25T05:57:38;7.70;99.90
15013;DHT22;7603;49.432;11.418;2023-04-25T06:00:07;7.70;99.90
15013;DHT22;7603;49.432;11.418;2023-04-25T06:02:34;7.90;99.90
15013;DHT22;7603;49.432;11.418;2023-04-25T06:05:00;8.00;99.90
15013;DHT22;7603;49.432;11.418;2023-04-25T06:07:29;8.00;99.90
15013;DHT22;7603;49.432;11.418;2023-04-25T06:09:55;8.00;99.90
15013;DHT22;7603;49.432;11.418;2023-04-25T06:12:21;8.00;99.90
15013;DHT22;7603;49.432;11.418;2023-04-25T06:14:46;7.90;99.90
15013;DHT22;7603;49.432;11.418;2023-04-25T06:17:12;7.90;99.90
15013;DHT22;7603;49.432;11.418;2023-04-25T06:19:37;7.90;99.90
15013;DHT22;7603;49.432;11.418;2023-04-25T06:22:03;7.90;99.90
15013;DHT22;7603;49.432;11.418;2023-04-25T06:24:28;7.90;99.90
15013;DHT22;7603;49.432;11.418;2023-04-25T06:26:54;7.90;99.90
15013;DHT22;7603;49.432;11.418;2023-04-25T06:29:20;8.00;99.90
15013;DHT22;7603;49.432;11.418;2023-04-25T06:31:46;8.10;99.90
15013;DHT22;7603;49.432;11.418;2023-04-25T06:34:11;8.20;99.90
15013;DHT22;7603;49.432;11.418;2023-04-25T06:36:37;8.30;99.90
15013;DHT22;7603;49.432;11.418;2023-04-25T06:39:03;8.30;99.90
15013;DHT22;7603;49.432;11.418;2023-04-25T06:41:28;8.30;99.90
15013;DHT22;7603;49.432;11.418;2023-04-25T06:43:54;8.40;99.90
15013;DHT22;7603;49.432;11.418;2023-04-25T06:46:19;8.40;99.90
15013;DHT22;7603;49.432;11.418;2023-04-25T06:48:45;8.60;99.90
15013;DHT22;7603;49.432;11.418;2023-04-25T06:51:11;8.70;99.90
15013;DHT22;7603;49.432;11.418;2023-04-25T06:53:38;8.80;99.90
15013;DHT22;7603;49.432;11.418;2023-04-25T06:56:04;8.90;99.90
15013;DHT22;7603;49.432;11.418;2023-04-25T06:58:29;8.90;99.90
15013;DHT22;7603;49.432;11.418;2023-04-25T07:00:55;8.90;99.90
15013;DHT22;7603;49.432;11.418;2023-04-25T07:03:21;8.70;99.90
15013;DHT22;7603;49.432;11.418;2023-04-25T07:05:46;8.70;99.90
15013;DHT22;7603;49.432;11.418;2023-04-25T07:08:12;8.60;99.90
15013;DHT22;7603;49.432;11.418;2023-04-25T07:10:37;8.50;99.90
15013;DHT22;7603;49.432;11.418;2023-04-25T07:13:03;8.50;99.90
15013;DHT22;7603;49.432;11.418;2023-04-25T07:15:29;8.50;99.90
15013;DHT22;7603;49.432;11.418;2023-04-25T07:17:54;8.60;99.90
15013;DHT22;7603;49.432;11.418;2023-04-25T07:20:20;8.70;99.90
15013;DHT22;7603;49.432;11.418;2023-04-25T07:22:46;8.90;99.90
15013;DHT22;7603;49.432;11.418;2023-04-25T07:25:11;8.80;99.90
15013;DHT22;7603;49.432;11.418;2023-04-25T07:27:37;8.70;99.90
15013;DHT22;7603;49.432;11.418;2023-04-25T07:30:03;8.60;99.90
15013;DHT22;7603;49.432;11.418;2023-04-25T07:32:29;8.70;99.90
15013;DHT22;7603;49.432;11.418;2023-04-25T07:34:55;8.70;99.90
15013;DHT22;7603;49.432;11.418;2023-04-25T07:37:21;8.80;99.90
15013;DHT22;7603;49.432;11.418;2023-04-25T07:39:46;8.90;99.90
15013;DHT22;7603;49.432;11.418;2023-04-25T07:42:12;9.10;99.90
15013;DHT22;7603;49.432;11.418;2023-04-25T07:44:38;9.20;99.90
15013;DHT22;7603;49.432;11.418;2023-04-25T07:47:08;9.40;99.90
15013;DHT22;7603;49.432;11.418;2023-04-25T07:49:35;9.50;99.90
15013;DHT22;7603;49.432;11.418;2023-04-25T07:52:02;9.50;99.90
15013;DHT22;7603;49.432;11.418;2023-04-25T07:54:28;9.50;99.90
15013;DHT22;7603;49.432;11.418;2023-04-25T07:56:53;9.40;99.90
15013;DHT22;7603;49.432;11.418;2023-04-25T07:59:19;9.40;99.90
15013;DHT22;7603;49.432;11.418;2023-04-25T08:01:45;9.30;99.90
15013;DHT22;7603;49.432;11.418;2023-04-25T08:04:11;9.20;99.90
15013;DHT22;7603;49.432;11.418;2023-04-25T08:06:37;9.20;99.90
15013;DHT22;7603;49.432;11.418;2023-04-25T08:09:02;9.10;99.90
15013;DHT22;7603;49.432;11.418;2023-04-25T08:11:28;8.90;99.90
15013;DHT22;7603;49.432;11.418;2023-04-25T08:13:54;8.80;99.90
15013;DHT22;7603;49.432;11.418;2023-04-25T08:16:19;8.70;99.90
15013;DHT22;7603;49.432;11.418;2023-04-25T08:18:45;8.40;99.90
15013;DHT22;7603;49.432;11.418;2023-04-25T08:21:10;8.00;99.90
15013;DHT22;7603;49.432;11.418;2023-04-25T08:23:37;7.80;99.90
15013;DHT22;7603;49.432;11.418;2023-04-25T08:26:02;7.80;99.90
15013;DHT22;7603;49.432;11.418;2023-04-25T08:28:28;7.70;99.90
15013;DHT22;7603;49.432;11.418;2023-04-25T08:30:54;7.60;99.90
15013;DHT22;7603;49.432;11.418;2023-04-25T08:33:19;7.60;99.90
15013;DHT22;7603;49.432;11.418;2023-04-25T08:35:45;7.60;99.90
15013;DHT22;7603;49.432;11.418;2023-04-25T08:38:11;7.60;99.90
15013;DHT22;7603;49.432;11.418;2023-04-25T08:40:38;7.70;99.90
15013;DHT22;7603;49.432;11.418;2023-04-25T08:43:06;8.00;99.90
15013;DHT22;7603;49.432;11.418;2023-04-25T08:45:38;8.30;99.90
15013;DHT22;7603;49.432;11.418;2023-04-25T08:48:06;8.60;99.90
15013;DHT22;7603;49.432;11.418;2023-04-25T08:50:33;9.00;99.90
15013;DHT22;7603;49.432;11.418;2023-04-25T08:52:59;9.40;99.90
15013;DHT22;7603;49.432;11.418;2023-04-25T08:55:28;9.90;99.90
15013;DHT22;7603;49.432;11.418;2023-04-25T08:57:54;10.30;99.90
15013;DHT22;7603;49.432;11.418;2023-04-25T09:00:22;10.60;99.90
15013;DHT22;7603;49.432;11.418;2023-04-25T09:02:48;10.80;99.90
15013;DHT22;7603;49.432;11.418;2023-04-25T09:05:14;11.00;99.90
15013;DHT22;7603;49.432;11.418;2023-04-25T09:07:40;11.10;99.90
15013;DHT22;7603;49.432;11.418;2023-04-25T09:10:05;11.30;99.90
15013;DHT22;7603;49.432;11.418;2023-04-25T09:12:31;11.60;99.90
15013;DHT22;7603;49.432;11.418;2023-04-25T09:17:31;12.40;99.90
15013;DHT22;7603;49.432;11.418;2023-04-25T09:20:09;12.50;99.90
15013;DHT22;7603;49.432;11.418;2023-04-25T09:22:35;12.70;99.90
15013;DHT22;7603;49.432;11.418;2023-04-25T09:25:19;13.20;99.90
15013;DHT22;7603;49.432;11.418;2023-04-25T09:27:52;13.80;99.90
15013;DHT22;7603;49.432;11.418;2023-04-25T09:30:18;14.30;99.90
15013;DHT22;7603;49.432;11.418;2023-04-25T09:32:44;15.00;99.90
15013;DHT22;7603;49.432;11.418;2023-04-25T09:35:10;15.70;99.90
15013;DHT22;7603;49.432;11.418;2023-04-25T09:37:48;16.30;99.90
15013;DHT22;7603;49.432;11.418;2023-04-25T09:40:13;16.70;99.90
15013;DHT22;7603;49.432;11.418;2023-04-25T09:42:41;16.80;99.90
15013;DHT22;7603;49.432;11.418;2023-04-25T09:45:07;17.10;97.50
15013;DHT22;7603;49.432;11.418;2023-04-25T09:47:37;16.70;93.70
15013;DHT22;7603;49.432;11.418;2023-04-25T09:50:16;16.50;95.00
15013;DHT22;7603;49.432;11.418;2023-04-25T09:52:44;16.50;93.50
15013;DHT22;7603;49.432;11.418;2023-04-25T09:55:10;16.80;95.40
15013;DHT22;7603;49.432;11.418;2023-04-25T09:57:35;17.40;94.10
15013;DHT22;7603;49.432;11.418;2023-04-25T10:00:06;17.90;90.50
15013;DHT22;7603;49.432;11.418;2023-04-25T10:02:36;18.20;88.10
15013;DHT22;7603;49.432;11.418;2023-04-25T10:05:05;18.00;85.40
15013;DHT22;7603;49.432;11.418;2023-04-25T10:07:33;17.50;81.80
15013;DHT22;7603;49.432;11.418;2023-04-25T10:10:02;17.00;83.00
15013;DHT22;7603;49.432;11.418;2023-04-25T10:12:29;16.40;83.80
15013;DHT22;7603;49.432;11.418;2023-04-25T10:14:55;15.50;85.30
15013;DHT22;7603;49.432;11.418;2023-04-25T10:17:21;15.00;90.00
15013;DHT22;7603;49.432;11.418;2023-04-25T10:19:47;14.70;90.20
15013;DHT22;7603;49.432;11.418;2023-04-25T10:22:26;14.30;91.40
15013;DHT22;7603;49.432;11.418;2023-04-25T10:24:55;14.00;92.70
15013;DHT22;7603;49.432;11.418;2023-04-25T10:27:22;13.70;92.30
15013;DHT22;7603;49.432;11.418;2023-04-25T10:30:03;13.40;93.10
15013;DHT22;7603;49.432;11.418;2023-04-25T10:32:31;13.30;94.50
15013;DHT22;7603;49.432;11.418;2023-04-25T10:35:23;14.10;94.20
15013;DHT22;7603;49.432;11.418;2023-04-25T10:38:11;15.70;89.90
15013;DHT22;7603;49.432;11.418;2023-04-25T10:40:39;17.20;87.00
15013;DHT22;7603;49.432;11.418;2023-04-25T10:45:56;17.60;76.70
15013;DHT22;7603;49.432;11.418;2023-04-25T10:48:28;17.00;75.30
15013;DHT22;7603;49.432;11.418;2023-04-25T10:51:20;16.60;78.70
15013;DHT22;7603;49.432;11.418;2023-04-25T10:54:12;16.30;78.60
15013;DHT22;7603;49.432;11.418;2023-04-25T10:56:39;16.40;78.90
15013;DHT22;7603;49.432;11.418;2023-04-25T10:59:11;16.30;78.60
15013;DHT22;7603;49.432;11.418;2023-04-25T11:04:22;16.20;81.00
15013;DHT22;7603;49.432;11.418;2023-04-25T11:09:39;15.50;84.20
15013;DHT22;7603;49.432;11.418;2023-04-25T11:12:07;16.50;83.40
15013;DHT22;7603;49.432;11.418;2023-04-25T11:14:33;17.50;78.70
15013;DHT22;7603;49.432;11.418;2023-04-25T11:16:59;18.20;77.40
15013;DHT22;7603;49.432;11.418;2023-04-25T11:19:26;19.40;72.60
15013;DHT22;7603;49.432;11.418;2023-04-25T11:21:55;21.10;61.50
15013;DHT22;7603;49.432;11.418;2023-04-25T11:24:32;22.40;57.70
15013;DHT22;7603;49.432;11.418;2023-04-25T11:27:00;22.40;53.20
15013;DHT22;7603;49.432;11.418;2023-04-25T11:29:28;21.90;51.30
15013;DHT22;7603;49.432;11.418;2023-04-25T11:31:55;21.30;53.50
15013;DHT22;7603;49.432;11.418;2023-04-25T11:34:24;20.70;52.70
15013;DHT22;7603;49.432;11.418;2023-04-25T11:36:51;19.90;53.20
15013;DHT22;7603;49.432;11.418;2023-04-25T11:39:18;19.10;54.50
15013;DHT22;7603;49.432;11.418;2023-04-25T11:41:44;18.20;55.40
15013;DHT22;7603;49.432;11.418;2023-04-25T11:44:10;17.40;58.00
15013;DHT22;7603;49.432;11.418;2023-04-25T11:46:36;16.80;59.40
15013;DHT22;7603;49.432;11.418;2023-04-25T11:49:02;16.30;60.30
15013;DHT22;7603;49.432;11.418;2023-04-25T11:51:27;15.70;62.40
15013;DHT22;7603;49.432;11.418;2023-04-25T11:53:53;15.30;63.80
15013;DHT22;7603;49.432;11.418;2023-04-25T11:56:19;15.00;65.60
15013;DHT22;7603;49.432;11.418;2023-04-25T11:58:59;14.70;65.20
15013;DHT22;7603;49.432;11.418;2023-04-25T12:01:38;14.30;66.70
15013;DHT22;7603;49.432;11.418;2023-04-25T12:04:15;13.90;69.00
15013;DHT22;7603;49.432;11.418;2023-04-25T12:06:43;13.60;70.50
15013;DHT22;7603;49.432;11.418;2023-04-25T12:09:11;13.60;72.80
15013;DHT22;7603;49.432;11.418;2023-04-25T12:11:58;13.60;75.10
15013;DHT22;7603;49.432;11.418;2023-04-25T12:14:29;13.70;74.50
15013;DHT22;7603;49.432;11.418;2023-04-25T12:16:56;13.80;74.20
15013;DHT22;7603;49.432;11.418;2023-04-25T12:19:23;14.00;74.60
15013;DHT22;7603;49.432;11.418;2023-04-25T12:21:49;14.30;74.20
15013;DHT22;7603;49.432;11.418;2023-04-25T12:24:22;14.60;71.00
15013;DHT22;7603;49.432;11.418;2023-04-25T12:29:28;16.30;67.10
15013;DHT22;7603;49.432;11.418;2023-04-25T12:31:54;17.80;62.60
15013;DHT22;7603;49.432;11.418;2023-04-25T12:34:20;19.00;59.30
15013;DHT22;7603;49.432;11.418;2023-04-25T12:36:47;19.40;57.40
15013;DHT22;7603;49.432;11.418;2023-04-25T12:39:17;19.20;53.80
15013;DHT22;7603;49.432;11.418;2023-04-25T12:41:43;18.60;54.90
15013;DHT22;7603;49.432;11.418;2023-04-25T12:44:09;18.10;54.20
15013;DHT22;7603;49.432;11.418;2023-04-25T12:46:35;17.40;54.50
15013;DHT22;7603;49.432;11.418;2023-04-25T12:49:01;16.80;55.40
15013;DHT22;7603;49.432;11.418;2023-04-25T12:51:28;16.40;56.90
15013;DHT22;7603;49.432;11.418;2023-04-25T12:53:54;16.10;57.10
15013;DHT22;7603;49.432;11.418;2023-04-25T12:56:20;15.70;57.00
15013;DHT22;7603;49.432;11.418;2023-04-25T12:58:45;15.60;58.50
15013;DHT22;7603;49.432;11.418;2023-04-25T13:01:11;15.60;59.30
15013;DHT22;7603;49.432;11.418;2023-04-25T13:03:39;15.70;59.30
15013;DHT22;7603;49.432;11.418;2023-04-25T13:06:06;16.00;59.40
15013;DHT22;7603;49.432;11.418;2023-04-25T13:08:32;16.50;58.30
15013;DHT22;7603;49.432;11.418;2023-04-25T13:10:57;17.20;57.10
15013;DHT22;7603;49.432;11.418;2023-04-25T13:13:23;18.00;55.50
15013;DHT22;7603;49.432;11.418;2023-04-25T13:15:49;18.60;55.00
15013;DHT22;7603;49.432;11.418;2023-04-25T13:18:15;18.90;53.10
15013;DHT22;7603;49.432;11.418;2023-04-25T13:20:40;18.60;53.60
15013;DHT22;7603;49.432;11.418;2023-04-25T13:23:06;18.20;53.90
15013;DHT22;7603;49.432;11.418;2023-04-25T13:25:32;17.70;54.00
15013;DHT22;7603;49.432;11.418;2023-04-25T13:27:57;17.10;55.00
15013;DHT22;7603;49.432;11.418;2023-04-25T13:30:23;16.40;56.10
15013;DHT22;7603;49.432;11.418;2023-04-25T13:32:48;15.90;57.00
15013;DHT22;7603;49.432;11.418;2023-04-25T13:35:14;15.50;58.60
15013;DHT22;7603;49.432;11.418;2023-04-25T13:37:40;15.20;59.20
15013;DHT22;7603;49.432;11.418;2023-04-25T13:40:08;15.00;61.00
15013;DHT22;7603;49.432;11.418;2023-04-25T13:42:35;15.00;61.90
15013;DHT22;7603;49.432;11.418;2023-04-25T13:45:01;15.20;61.50
15013;DHT22;7603;49.432;11.418;2023-04-25T13:47:28;15.50;59.50
15013;DHT22;7603;49.432;11.418;2023-04-25T13:49:54;15.90;58.50
15013;DHT22;7603;49.432;11.418;2023-04-25T13:52:20;16.20;57.80
15013;DHT22;7603;49.432;11.418;2023-04-25T13:54:46;16.30;57.20
15013;DHT22;7603;49.432;11.418;2023-04-25T13:57:12;16.40;56.90
15013;DHT22;7603;49.432;11.418;2023-04-25T13:59:38;16.40;56.90
15013;DHT22;7603;49.432;11.418;2023-04-25T14:02:04;16.40;57.10
15013;DHT22;7603;49.432;11.418;2023-04-25T14:04:29;16.20;58.20
15013;DHT22;7603;49.432;11.418;2023-04-25T14:06:55;15.90;58.60
15013;DHT22;7603;49.432;11.418;2023-04-25T14:09:21;15.70;59.00
15013;DHT22;7603;49.432;11.418;2023-04-25T14:11:51;15.50;60.00
15013;DHT22;7603;49.432;11.418;2023-04-25T14:14:18;15.30;60.40
15013;DHT22;7603;49.432;11.418;2023-04-25T14:16:43;15.10;61.10
15013;DHT22;7603;49.432;11.418;2023-04-25T14:19:09;15.10;60.80
15013;DHT22;7603;49.432;11.418;2023-04-25T14:21:34;15.00;61.50
15013;DHT22;7603;49.432;11.418;2023-04-25T14:24:00;15.00;61.90
15013;DHT22;7603;49.432;11.418;2023-04-25T14:26:26;15.00;62.60
15013;DHT22;7603;49.432;11.418;2023-04-25T14:28:52;15.10;62.30
15013;DHT22;7603;49.432;11.418;2023-04-25T14:31:17;15.10;61.60
15013;DHT22;7603;49.432;11.418;2023-04-25T14:33:43;15.10;61.40
15013;DHT22;7603;49.432;11.418;2023-04-25T14:36:09;15.00;61.00
15013;DHT22;7603;49.432;11.418;2023-04-25T14:38:35;15.00;61.50
15013;DHT22;7603;49.432;11.418;2023-04-25T14:41:01;15.00;61.70
15013;DHT22;7603;49.432;11.418;2023-04-25T14:43:27;15.00;61.00
15013;DHT22;7603;49.432;11.418;2023-04-25T14:45:53;14.80;60.60
15013;DHT22;7603;49.432;11.418;2023-04-25T14:48:19;14.90;60.80
15013;DHT22;7603;49.432;11.418;2023-04-25T14:50:45;14.90;61.10
15013;DHT22;7603;49.432;11.418;2023-04-25T14:53:11;14.70;61.10
15013;DHT22;7603;49.432;11.418;2023-04-25T14:55:37;14.50;61.30
15013;DHT22;7603;49.432;11.418;2023-04-25T14:58:03;14.30;62.30
15013;DHT22;7603;49.432;11.418;2023-04-25T15:00:28;14.10;62.80
15013;DHT22;7603;49.432;11.418;2023-04-25T15:02:56;13.80;63.30
15013;DHT22;7603;49.432;11.418;2023-04-25T15:05:22;13.50;63.60
15013;DHT22;7603;49.432;11.418;2023-04-25T15:07:47;13.20;64.50
15013;DHT22;7603;49.432;11.418;2023-04-25T15:10:13;12.80;66.20
15013;DHT22;7603;49.432;11.418;2023-04-25T15:12:44;12.50;67.80
15013;DHT22;7603;49.432;11.418;2023-04-25T15:15:10;12.30;70.90
15013;DHT22;7603;49.432;11.418;2023-04-25T15:17:43;12.20;74.00
15013;DHT22;7603;49.432;11.418;2023-04-25T15:20:10;12.10;74.30
15013;DHT22;7603;49.432;11.418;2023-04-25T15:22:36;12.10;74.10
15013;DHT22;7603;49.432;11.418;2023-04-25T15:25:03;12.00;74.90
15013;DHT22;7603;49.432;11.418;2023-04-25T15:27:29;12.00;75.70
15013;DHT22;7603;49.432;11.418;2023-04-25T15:29:55;12.10;75.60
15013;DHT22;7603;49.432;11.418;2023-04-25T15:32:21;12.20;75.50
15013;DHT22;7603;49.432;11.418;2023-04-25T15:34:47;12.30;75.00
15013;DHT22;7603;49.432;11.418;2023-04-25T15:37:13;12.30;76.00
15013;DHT22;7603;49.432;11.418;2023-04-25T15:39:39;12.40;75.10
15013;DHT22;7603;49.432;11.418;2023-04-25T15:42:04;12.40;74.80
15013;DHT22;7603;49.432;11.418;2023-04-25T15:44:30;12.40;75.40
15013;DHT22;7603;49.432;11.418;2023-04-25T15:46:55;12.40;76.70
15013;DHT22;7603;49.432;11.418;2023-04-25T15:49:21;12.60;78.20
15013;DHT22;7603;49.432;11.418;2023-04-25T15:51:47;12.70;78.30